Marldon, United Kingdom
Current Conditions -  °F | °C
As of 8:20 AM on Monday 22 Dec 2014 (Local Time) from EGTE Reporting Station
Scattered Clouds Scattered Clouds  
Wind Chill: 54°   Ceiling: Unl
Heat Index: 54°   Visibility: 6mi
Dew Point: 46°   Wind: 23mph
Humidity: 77%   Direction: 260°W
Pressure: 30.15"   Gusts: NA
Location:  50.46°N, 3.6°W
Report Text: EGTE 220820Z 26020KT 9999 SCT020 12/08 Q1021
Loading
Personal Weather Stations






























Interactive Weather Map New forecast layout! Learn more

10-Day Weather Forecast

Advertisements
Track Severe Weather on mobile